Flood From: 22-02-2018 06:00 Until: 23-02-2018 06:00 warning for: Flood Level: Yellow info button

Although rather usual in this region, locally or potentially dangerous phenomena are expected. (such as local winds, summer thunderstorms, rising streams or high waves) Be aware and pay attention to the latest weather updates, especially if you carry out activities exposed to weather or close to a stream or shoreline. 


Meteo18 Weather Cam more information Meteo18 Weather Cam


Thunder radar more information blitzortung!


Rain radar more information rain snow radar


Visit our other weather sites:

Template documentation
and downloads

And another site



Weather Underground History page Text

Daily Summary for December 13, 2017 Units:  Metric    English   Both
« Previous Day
Next Day »
Daily Weekly Monthly Yearly Custom
  High: Low: Average:
Temperature: -17.8 °C -17.3 °C -14.8 °C
Dew Point: -17.8 °C -18.1 °C -15.4 °C
Humidity: Humidity % 86 % 92 %
Wind Speed: 0 km/h 0 km/h 23.3 km/h
Wind Gust: 0 km/h - -
Wind:- - SW
Pressure: 0 hPa 33900.6 hPa -
Precipitation: 226.06 mm    
Historical Graphs
 
 
Tabular Data for December 13, 2017
Time Temperature Dew Point Pressure Wind Wind Speed Wind Gust Humidity Rainfall Rate (Hourly)
-17.8 °C -17.8 °C 0 hPa Calm     Humidity % 0 mm
00:02 -16.3 °C -17.3 °C 34496.6 hPa SSW 5.1 km/h 5.1 km/h 88 % 0 mm
00:12 -16.3 °C -17.2 °C 34496.6 hPa Calm   5.1 km/h 89 % 0 mm
00:27 -16.5 °C -17.4 °C 34496.6 hPa SSW 2.6 km/h 5.1 km/h 89 % 0 mm
00:32 -16.5 °C -17.3 °C 34510.1 hPa SW 5.1 km/h 5.1 km/h 90 % 0 mm
00:47 -16.4 °C -17.3 °C 34496.6 hPa SE 5.1 km/h 7.7 km/h 89 % 0 mm
00:52 -16.4 °C -17.3 °C 34496.6 hPa Calm   7.7 km/h 89 % 0 mm
00:57 -16.4 °C -17.3 °C 34496.6 hPa Calm   7.7 km/h 89 % 0 mm
01:02 -16.5 °C -17.4 °C 34496.6 hPa South 5.1 km/h 7.7 km/h 89 % 0 mm
01:12 -16.6 °C -17.4 °C 34486.4 hPa South 2.6 km/h 10.3 km/h 89 % 0 mm
01:17 -16.6 °C -17.5 °C 34486.4 hPa SSW 2.6 km/h 10.3 km/h 89 % 0 mm
01:22 -16.8 °C -17.7 °C 34486.4 hPa SSW 2.6 km/h 10.3 km/h 89 % 0 mm
01:27 -16.8 °C -17.7 °C 34486.4 hPa SSW 7.7 km/h 7.7 km/h 89 % 0 mm
01:47 -16.8 °C -17.7 °C 34476.3 hPa SW 10.3 km/h 15.6 km/h 89 % 0 mm
01:52 -16.8 °C -17.7 °C 34476.3 hPa SW 12.9 km/h 18.2 km/h 89 % 0 mm
01:57 -16.8 °C -17.7 °C 34476.3 hPa South 10.3 km/h 23.3 km/h 89 % 0 mm
02:02 -16.8 °C -17.7 °C 34486.4 hPa SSW 10.3 km/h 23.3 km/h 89 % 0 mm
02:07 -16.8 °C -17.7 °C 34486.4 hPa SSW 15.6 km/h 23.3 km/h 89 % 0 mm
02:12 -16.8 °C -17.7 °C 34486.4 hPa SSW 7.7 km/h 20.8 km/h 89 % 0 mm
02:22 -16.8 °C -17.7 °C 34486.4 hPa South 2.6 km/h 18.2 km/h 89 % 0 mm
02:37 -16.8 °C -17.7 °C 34486.4 hPa SSW 2.6 km/h 12.9 km/h 89 % 0 mm
02:42 -16.9 °C -17.8 °C 34486.4 hPa SSW 7.7 km/h 12.9 km/h 89 % 0 mm
02:52 -16.9 °C -17.8 °C 34476.3 hPa South 2.6 km/h 10.3 km/h 89 % 0 mm
02:57 -17 °C -17.9 °C 34476.3 hPa SSW 2.6 km/h 10.3 km/h 89 % 0 mm
03:02 -17.1 °C -17.9 °C 34476.3 hPa Calm   10.3 km/h 89 % 0 mm
03:12 -17.1 °C -17.8 °C 34476.3 hPa SSW 10.3 km/h 18.2 km/h 91 % 0 mm
03:17 -17.1 °C -17.8 °C 34476.3 hPa SW 10.3 km/h 18.2 km/h 91 % 0 mm
03:32 -17.1 °C -17.8 °C 34462.7 hPa SW 10.3 km/h 20.8 km/h 91 % 0 mm
03:37 -17.1 °C -17.9 °C 34462.7 hPa SW 5.1 km/h 20.8 km/h 90 % 0 mm
03:42 -17.1 °C -17.9 °C 34462.7 hPa SSW 7.7 km/h 18.2 km/h 90 % 0 mm
03:52 -17.2 °C -17.9 °C 34462.7 hPa SSW 15.6 km/h 18.2 km/h 91 % 0 mm
04:02 -17.3 °C -18.1 °C 34462.7 hPa SSW 5.1 km/h 15.6 km/h 91 % 0 mm
04:17 -17.3 °C -17.9 °C 34462.7 hPa SSW 7.7 km/h 15.6 km/h 92 % 0 mm
04:22 -17.3 °C -18 °C 34452.6 hPa SSW 10.3 km/h 15.6 km/h 92 % 0 mm
04:27 -17.3 °C -18 °C 34452.6 hPa SSW 10.3 km/h 18.2 km/h 92 % 0 mm
04:32 -17.3 °C -17.9 °C 34442.4 hPa SSW 12.9 km/h 18.2 km/h 92 % 0 mm
04:42 -17.2 °C -17.9 °C 34428.8 hPa South 7.7 km/h 20.8 km/h 92 % 0 mm
04:47 -17.2 °C -17.8 °C 34428.8 hPa South 7.7 km/h 20.8 km/h 92 % 0 mm
04:52 -17.2 °C -17.8 °C 34428.8 hPa SSW 10.3 km/h 20.8 km/h 92 % 0 mm
05:02 -17.2 °C -17.8 °C 34428.8 hPa South 10.3 km/h 12.9 km/h 92 % 0 mm
05:17 -17.1 °C -17.8 °C 34418.7 hPa SSW 18.2 km/h 18.2 km/h 92 % 0 mm
05:27 -17.1 °C -17.7 °C 34418.7 hPa SW 18.2 km/h 23.3 km/h 92 % 0 mm
05:32 -17.1 °C -17.7 °C 34418.7 hPa SW 18.2 km/h 23.3 km/h 92 % 0 mm
05:37 -17 °C -17.7 °C 34418.7 hPa SSW 12.9 km/h 23.3 km/h 92 % 0 mm
05:42 -17 °C -17.7 °C 34418.7 hPa SSW 10.3 km/h 25.9 km/h 92 % 0 mm
05:52 -16.9 °C -17.6 °C 34418.7 hPa SW 25.9 km/h 28.5 km/h 92 % 0 mm
05:57 -16.9 °C -17.7 °C 34418.7 hPa SW 18.2 km/h 28.5 km/h 91 % 0 mm
06:02 -17 °C -17.7 °C 34405.1 hPa SW 20.8 km/h 28.5 km/h 91 % 0 mm
06:12 -17 °C -17.7 °C 34405.1 hPa WSW 15.6 km/h 28.5 km/h 92 % 0 mm
06:17 -17.1 °C -17.7 °C 34405.1 hPa SW 20.8 km/h 25.9 km/h 92 % 0 mm
06:32 -17.1 °C -17.7 °C 34405.1 hPa SW 18.2 km/h 20.8 km/h 92 % 0 mm
06:37 -17.1 °C -17.7 °C 34405.1 hPa SSW 10.3 km/h 20.8 km/h 92 % 0 mm
06:42 -17.1 °C -17.7 °C 34405.1 hPa SSW 10.3 km/h 23.3 km/h 92 % 0 mm
06:47 -17.1 °C -17.6 °C 34395 hPa SSW 10.3 km/h 23.3 km/h 93 % 0 mm
06:52 -17.1 °C -17.6 °C 34395 hPa SSW 7.7 km/h 15.6 km/h 93 % 0 mm
07:02 -17 °C -17.6 °C 34384.8 hPa SW 12.9 km/h 15.6 km/h 93 % 0 mm
07:07 -16.9 °C -17.5 °C 34384.8 hPa SSW 10.3 km/h 15.6 km/h 93 % 0 mm
07:22 -16.8 °C -17.3 °C 34371.3 hPa South 12.9 km/h 15.6 km/h 93 % 0 mm
07:32 -16.6 °C -17.2 °C 34371.3 hPa SSW 15.6 km/h 18.2 km/h 93 % 0 mm
07:37 -16.6 °C -17.2 °C 34371.3 hPa SSW 15.6 km/h 18.2 km/h 92 % 0 mm
07:42 -16.4 °C -17.1 °C 34361.1 hPa SSW 10.3 km/h 18.2 km/h 92 % 0 mm
07:57 -16.2 °C -16.9 °C 34347.6 hPa SSW 10.3 km/h 31.1 km/h 91 % 0 mm
08:02 -16.2 °C -16.9 °C 34347.6 hPa SSW 20.8 km/h 31.1 km/h 91 % 0 mm
08:07 -16.2 °C -17 °C 34347.6 hPa SW 10.3 km/h 31.1 km/h 90 % 0 mm
08:27 -15.9 °C -16.8 °C 34347.6 hPa SSW 15.6 km/h 28.5 km/h 90 % 0 mm
08:37 -15.9 °C -16.7 °C 34347.6 hPa South 23.3 km/h 36.2 km/h 90 % 0 mm
08:42 -15.8 °C -16.7 °C 34337.4 hPa SSW 10.3 km/h 36.2 km/h 90 % 0 mm
08:52 -15.7 °C -16.6 °C 34327.3 hPa SW 31.1 km/h 36.2 km/h 89 % 0 mm
08:57 -15.7 °C -16.6 °C 34327.3 hPa South 18.2 km/h 36.2 km/h 89 % 0 mm
09:02 -15.7 °C -16.5 °C 34327.3 hPa SW 25.9 km/h 33.6 km/h 90 % 0 mm
09:07 -15.7 °C -16.5 °C 34327.3 hPa SSW 15.6 km/h 33.6 km/h 90 % 0 mm
09:12 -15.7 °C -16.5 °C 34313.7 hPa SSW 20.8 km/h 33.6 km/h 90 % 0 mm
09:17 -15.7 °C -16.4 °C 34313.7 hPa SSW 18.2 km/h 41.4 km/h 91 % 0 mm
09:22 -15.7 °C -16.4 °C 34313.7 hPa SSW 20.8 km/h 41.4 km/h 91 % 7.62 mm
09:32 -15.6 °C -16.3 °C 34303.6 hPa SSW 18.2 km/h 41.4 km/h 91 % 7.62 mm
09:37 -15.6 °C -16.3 °C 34303.6 hPa SW 38.8 km/h 46.7 km/h 91 % 12.7 mm
09:42 -15.6 °C -16.2 °C 34303.6 hPa SSW 25.9 km/h 46.7 km/h 92 % 12.7 mm
09:47 -15.6 °C -16.2 °C 34293.4 hPa SSW 28.5 km/h 46.7 km/h 92 % 12.7 mm
09:52 -15.5 °C -16.2 °C 34293.4 hPa SSE 25.9 km/h 44.1 km/h 92 % 20.32 mm
10:02 -15.5 °C -16.2 °C 34293.4 hPa SSW 18.2 km/h 44.1 km/h 92 % 25.4 mm
10:12 -15.5 °C -16.2 °C 34293.4 hPa SSE 20.8 km/h 44.1 km/h 92 % 33.02 mm
10:17 -15.4 °C -16 °C 34293.4 hPa SSW 20.8 km/h 41.4 km/h 93 % 33.02 mm
10:22 -15.4 °C -16.1 °C 34293.4 hPa SW 20.8 km/h 33.6 km/h 92 % 33.02 mm
10:27 -15.4 °C -16 °C 34279.9 hPa South 15.6 km/h 38.8 km/h 93 % 38.1 mm
10:37 -15.4 °C -16 °C 34269.7 hPa South 20.8 km/h 38.8 km/h 93 % 38.1 mm
10:47 -15.4 °C -15.9 °C 34269.7 hPa SW 25.9 km/h 38.8 km/h 93 % 38.1 mm
10:52 -15.3 °C -15.9 °C 34279.9 hPa SSW 20.8 km/h 33.6 km/h 93 % 33.02 mm
11:02 -15.3 °C -15.8 °C 34279.9 hPa SW 23.3 km/h 38.8 km/h 93 % 38.1 mm
11:12 -15.2 °C -15.7 °C 34269.7 hPa SSW 25.9 km/h 38.8 km/h 94 % 33.02 mm
11:17 -15.2 °C -15.7 °C 34269.7 hPa SSW 25.9 km/h 38.8 km/h 94 % 58.42 mm
11:22 -15.2 °C -15.7 °C 34269.7 hPa South 25.9 km/h 36.2 km/h 94 % 58.42 mm
11:27 -15.2 °C -15.7 °C 34269.7 hPa SW 20.8 km/h 44.1 km/h 94 % 58.42 mm
11:32 -15.2 °C -15.6 °C 34269.7 hPa SW 18.2 km/h 44.1 km/h 95 % 58.42 mm
11:37 -15.1 °C -15.5 °C 34269.7 hPa SW 15.6 km/h 44.1 km/h 95 % 58.42 mm
11:47 -15.1 °C -15.4 °C 34256.2 hPa SW 23.3 km/h 33.6 km/h 96 % 58.42 mm
11:52 -15 °C -15.3 °C 34256.2 hPa SW 15.6 km/h 31.1 km/h 96 % 58.42 mm
11:57 -14.8 °C -15 °C 34256.2 hPa SSW 23.3 km/h 31.1 km/h 97 % 45.72 mm
12:02 -14.6 °C -14.8 °C 34256.2 hPa SSW 20.8 km/h 33.6 km/h 97 % 45.72 mm
12:12 -14.3 °C -14.7 °C 34246 hPa WSW 38.8 km/h 44.1 km/h 95 % 38.1 mm
12:17 -14.3 °C -14.7 °C 34256.2 hPa West 38.8 km/h 57 km/h 95 % 25.4 mm
12:22 -14.2 °C -14.7 °C 34246 hPa SW 38.8 km/h 57 km/h 94 % 20.32 mm
12:27 -14.2 °C -14.7 °C 34246 hPa SW 31.1 km/h 57 km/h 94 % 20.32 mm
12:32 -14.2 °C -14.7 °C 34246 hPa SW 28.5 km/h 62.1 km/h 94 % 12.7 mm
12:37 -14.1 °C -14.7 °C 34235.8 hPa SW 28.5 km/h 62.1 km/h 93 % 12.7 mm
12:42 -14.1 °C -14.7 °C 34235.8 hPa WSW 33.6 km/h 75.2 km/h 93 % 7.62 mm
12:47 -14.1 °C -14.7 °C 34235.8 hPa WSW 41.4 km/h 75.2 km/h 93 % 7.62 mm
12:52 -14.1 °C -14.7 °C 34235.8 hPa WSW 18.2 km/h 75.2 km/h 92 % 0 mm
13:02 -14 °C -14.7 °C 34235.8 hPa SW 33.6 km/h 62.1 km/h 92 % 0 mm
13:12 -13.9 °C -14.6 °C 34235.8 hPa WSW 23.3 km/h 51.8 km/h 92 % 0 mm
13:17 -13.9 °C -14.6 °C 34235.8 hPa SW 38.8 km/h 49.2 km/h 92 % 0 mm
13:22 -13.9 °C -14.6 °C 34222.3 hPa SW 36.2 km/h 49.2 km/h 92 % 0 mm
13:32 -13.9 °C -14.6 °C 34212.1 hPa SW 31.1 km/h 49.2 km/h 92 % 0 mm
13:37 -13.9 °C -14.6 °C 34212.1 hPa WSW 33.6 km/h 44.1 km/h 92 % 0 mm
13:42 -13.8 °C -14.5 °C 34212.1 hPa SW 33.6 km/h 44.1 km/h 92 % 0 mm
13:57 -13.8 °C -14.4 °C 34198.6 hPa SW 28.5 km/h 51.8 km/h 92 % 0 mm
14:02 -13.8 °C -14.4 °C 34198.6 hPa SSW 18.2 km/h 51.8 km/h 92 % 0 mm
14:12 -13.8 °C -14.4 °C 34198.6 hPa SW 31.1 km/h 51.8 km/h 92 % 0 mm
14:17 -13.8 °C -14.4 °C 34188.4 hPa SW 20.8 km/h 49.2 km/h 92 % 0 mm
14:32 -13.7 °C -14.4 °C 34188.4 hPa SW 15.6 km/h 41.4 km/h 92 % 0 mm
14:37 -13.7 °C -14.4 °C 34188.4 hPa SW 25.9 km/h 44.1 km/h 92 % 0 mm
14:42 -13.7 °C -14.4 °C 34178.3 hPa SW 25.9 km/h 44.1 km/h 92 % 0 mm
14:47 -13.7 °C -14.3 °C 34178.3 hPa SW 23.3 km/h 41.4 km/h 92 % 0 mm
14:57 -13.7 °C -14.3 °C 34178.3 hPa SW 20.8 km/h 38.8 km/h 93 % 0 mm
15:02 -13.7 °C -14.3 °C 34178.3 hPa SW 18.2 km/h 38.8 km/h 93 % 0 mm
15:07 -13.7 °C -14.3 °C 34178.3 hPa SW 28.5 km/h 36.2 km/h 93 % 0 mm
15:12 -13.7 °C -14.2 °C 34178.3 hPa SW 20.8 km/h 33.6 km/h 94 % 0 mm
15:17 -13.7 °C -14.3 °C 34178.3 hPa SW 18.2 km/h 36.2 km/h 93 % 7.62 mm
15:22 -13.8 °C -14.4 °C 34164.7 hPa SW 28.5 km/h 36.2 km/h 93 % 7.62 mm
15:32 -13.8 °C -14.4 °C 34154.6 hPa SW 31.1 km/h 41.4 km/h 93 % 7.62 mm
15:42 -13.8 °C -14.4 °C 34154.6 hPa SSW 23.3 km/h 41.4 km/h 93 % 7.62 mm
15:47 -13.8 °C -14.3 °C 34154.6 hPa SSW 12.9 km/h 36.2 km/h 94 % 7.62 mm
15:52 -13.8 °C -14.4 °C 34144.4 hPa South 23.3 km/h 31.1 km/h 93 % 7.62 mm
15:57 -13.8 °C -14.4 °C 34144.4 hPa SSW 15.6 km/h 33.6 km/h 93 % 7.62 mm
16:07 -13.8 °C -14.4 °C 34144.4 hPa SSW 31.1 km/h 38.8 km/h 93 % 7.62 mm
16:12 -13.8 °C -14.5 °C 34144.4 hPa SW 28.5 km/h 49.2 km/h 92 % 7.62 mm
16:17 -13.8 °C -14.6 °C 34130.9 hPa SSW 25.9 km/h 59.5 km/h 91 % 0 mm
16:32 -14 °C -14.7 °C 34120.7 hPa SW 38.8 km/h 57 km/h 92 % 0 mm
16:37 -14 °C -14.7 °C 34120.7 hPa SSW 38.8 km/h 57 km/h 92 % 0 mm
16:47 -14 °C -14.7 °C 34107.2 hPa SW 41.4 km/h 59.5 km/h 92 % 0 mm
16:52 -14 °C -14.6 °C 34097 hPa SW 44.1 km/h 54.4 km/h 93 % 0 mm
16:57 -14 °C -14.6 °C 34097 hPa South 33.6 km/h 57 km/h 93 % 0 mm
17:02 -14 °C -14.6 °C 34097 hPa SW 31.1 km/h 57 km/h 93 % 0 mm
17:22 -14 °C -14.5 °C 34086.9 hPa SSW 25.9 km/h 54.4 km/h 94 % 0 mm
17:32 -14 °C -14.5 °C 34073.3 hPa SSW 28.5 km/h 54.4 km/h 94 % 7.62 mm
17:37 -14 °C -14.5 °C 34063.2 hPa SW 36.2 km/h 54.4 km/h 94 % 7.62 mm
17:42 -13.9 °C -14.3 °C 34049.6 hPa South 28.5 km/h 62.1 km/h 95 % 12.7 mm
17:52 -13.9 °C -14.4 °C 34049.6 hPa SSW 36.2 km/h 62.1 km/h 94 % 12.7 mm
17:57 -13.9 °C -14.4 °C 34049.6 hPa SW 25.9 km/h 57 km/h 94 % 12.7 mm
18:12 -13.8 °C -14.2 °C 34039.5 hPa SW 36.2 km/h 57 km/h 95 % 20.32 mm
18:17 -13.8 °C -14.2 °C 34029.3 hPa SW 44.1 km/h 57 km/h 95 % 20.32 mm
18:32 -13.8 °C -14.2 °C 34005.6 hPa SSE 28.5 km/h 54.4 km/h 95 % 20.32 mm
18:37 -13.8 °C -14.2 °C 33992.1 hPa SSW 25.9 km/h 51.8 km/h 95 % 25.4 mm
18:42 -13.9 °C -14.3 °C 33992.1 hPa SW 18.2 km/h 49.2 km/h 95 % 25.4 mm
18:47 -13.9 °C -14.3 °C 33981.9 hPa SSW 20.8 km/h 46.7 km/h 95 % 38.1 mm
18:52 -14 °C -14.3 °C 33981.9 hPa SSE 25.9 km/h 36.2 km/h 96 % 38.1 mm
18:57 -14 °C -14.3 °C 33981.9 hPa SSW 38.8 km/h 38.8 km/h 96 % 38.1 mm
19:02 -14 °C -14.3 °C 33971.7 hPa South 25.9 km/h 54.4 km/h 96 % 38.1 mm
19:12 -13.9 °C -14.3 °C 33971.7 hPa SW 31.1 km/h 54.4 km/h 96 % 38.1 mm
19:17 -13.9 °C -14.3 °C 33958.2 hPa SSW 31.1 km/h 46.7 km/h 96 % 38.1 mm
19:22 -13.9 °C -14.3 °C 33958.2 hPa SSW 23.3 km/h 46.7 km/h 96 % 33.02 mm
19:27 -13.9 °C -14.2 °C 33958.2 hPa SSW 33.6 km/h 46.7 km/h 96 % 33.02 mm
19:37 -13.7 °C -13.9 °C 33948 hPa SW 41.4 km/h 57 km/h 97 % 20.32 mm
19:42 -13.6 °C -13.8 °C 33937.9 hPa SW 33.6 km/h 59.5 km/h 97 % 20.32 mm
19:47 -13.5 °C -13.7 °C 33937.9 hPa WSW 51.8 km/h 64.7 km/h 97 % 12.7 mm
19:52 -13.4 °C -13.7 °C 33937.9 hPa SW 38.8 km/h 64.7 km/h 97 % 12.7 mm
19:57 -13.3 °C -13.6 °C 33937.9 hPa WSW 23.3 km/h 64.7 km/h 96 % 12.7 mm
20:02 -13.2 °C -13.6 °C 33924.3 hPa WSW 18.2 km/h 64.7 km/h 96 % 12.7 mm
20:07 -13.2 °C -13.5 °C 33924.3 hPa SW 41.4 km/h 64.7 km/h 96 % 12.7 mm
20:12 -13.1 °C -13.4 °C 33924.3 hPa WSW 33.6 km/h 64.7 km/h 96 % 7.62 mm
20:17 -13.1 °C -13.4 °C 33914.2 hPa SW 49.2 km/h 64.7 km/h 96 % 7.62 mm
20:22 -13 °C -13.4 °C 33924.3 hPa West 23.3 km/h 67.3 km/h 95 % 7.62 mm
20:27 -12.9 °C -13.3 °C 33914.2 hPa SW 44.1 km/h 67.3 km/h 96 % 7.62 mm
20:32 -12.9 °C -13.2 °C 33914.2 hPa WSW 36.2 km/h 77.7 km/h 96 % 12.7 mm
20:37 -12.8 °C -13.2 °C 33914.2 hPa WSW 54.4 km/h 77.7 km/h 96 % 12.7 mm
20:42 -12.7 °C -13.1 °C 33914.2 hPa WSW 38.8 km/h 77.7 km/h 96 % 7.62 mm
20:47 -12.7 °C -13 °C 33900.6 hPa SW 38.8 km/h 69.8 km/h 96 % 7.62 mm
20:52 -12.6 °C -12.9 °C 33914.2 hPa WSW 38.8 km/h 75.2 km/h 96 % 12.7 mm
20:57 -12.5 °C -12.8 °C 33914.2 hPa WSW 44.1 km/h 75.2 km/h 96 % 12.7 mm
21:02 -12.4 °C -12.8 °C 33914.2 hPa SW 36.2 km/h 75.2 km/h 96 % 12.7 mm
21:07 -12.3 °C -12.7 °C 33914.2 hPa WSW 31.1 km/h 82.9 km/h 96 % 12.7 mm
21:12 -12.3 °C -12.7 °C 33914.2 hPa WSW 33.6 km/h 82.9 km/h 96 % 20.32 mm
21:17 -12.2 °C -12.6 °C 33914.2 hPa SW 49.2 km/h 82.9 km/h 96 % 20.32 mm
21:22 -12.1 °C -12.4 °C 33924.3 hPa WSW 28.5 km/h 69.8 km/h 96 % 25.4 mm
21:32 -12 °C -12.4 °C 33914.2 hPa West 33.6 km/h 77.7 km/h 95 % 25.4 mm
21:37 -11.9 °C -12.3 °C 33924.3 hPa WNW 38.8 km/h 77.7 km/h 95 % 33.02 mm
21:47 -11.7 °C -12.2 °C 33924.3 hPa West 23.3 km/h 77.7 km/h 94 % 33.02 mm
22:02 -11.5 °C -12.2 °C 33937.9 hPa West 41.4 km/h 75.2 km/h 92 % 20.32 mm
22:12 -11.5 °C -12.2 °C 33948 hPa WSW 25.9 km/h 72.6 km/h 92 % 12.7 mm
22:17 -11.6 °C -12.3 °C 33948 hPa West 23.3 km/h 69.8 km/h 92 % 12.7 mm
22:27 -11.6 °C -12.3 °C 33958.2 hPa West 15.6 km/h 72.6 km/h 92 % 12.7 mm
22:32 -11.6 °C -12.4 °C 33958.2 hPa West 46.7 km/h 72.6 km/h 91 % 7.62 mm
22:47 -11.6 °C -12.7 °C 33971.7 hPa West 38.8 km/h 51.8 km/h 88 % 12.7 mm
22:52 -11.7 °C -12.7 °C 33981.9 hPa WNW 31.1 km/h 57 km/h 89 % 12.7 mm
23:02 -12 °C -12.9 °C 33981.9 hPa WNW 49.2 km/h 51.8 km/h 89 % 12.7 mm
23:07 -12.1 °C -13 °C 33992.1 hPa NW 31.1 km/h 54.4 km/h 89 % 12.7 mm
23:17 -12 °C -13.2 °C 33981.9 hPa West 41.4 km/h 72.6 km/h 86 % 12.7 mm
23:22 -12.1 °C -13.3 °C 33992.1 hPa West 51.8 km/h 72.6 km/h 86 % 12.7 mm
23:27 -12.1 °C -13.3 °C 33992.1 hPa West 54.4 km/h 69.8 km/h 86 % 12.7 mm
23:32 -12.1 °C -13.2 °C 33992.1 hPa West 31.1 km/h 67.3 km/h 87 % 12.7 mm
23:37 -12.1 °C -13.1 °C 33992.1 hPa WSW 44.1 km/h 59.5 km/h 88 % 7.62 mm
23:42 -12.1 °C -13.1 °C 33992.1 hPa WSW 23.3 km/h 57 km/h 89 % 7.62 mm
23:47 -12.1 °C -13.1 °C 33992.1 hPa WSW 33.6 km/h 54.4 km/h 89 % 7.62 mm
Meteo18
Compliments of Weather Underground - 4 mb

Script developed by  Jim McMurry - jmcmurry@mwt.net Adapted for the template by  Wim van der Kuil - Leuven-Template.eu

You find our weather info also at:

European Weather Network

Weather Underground

Equipment we use:

Weather-station
Davis Vue

Weather-program
Meteobridge

Weather-server
Raspberry PI 2 B+

Provider
1 and 1

Davis Vue

Meteobridge

Raspberry PI 2 B+

1 and 1